Rick Husband Amarillo International Airport
KAMA : rendu visible

Aérodrome :











RETROUVEZ-NOUS SUR...

 
LOGIN :

S'inscrire | Disclaimer

   EN    FR    IT 

 









Légende :    VFR   VFR Marginal   IFR   IFR Intensif   IFR Très Intensif
Visi : 
Plafond : 
>= 8 km
>= 3000ft
5 à 8 km
1000 à 3000 ft
1500m à 5 km
500 à 1000 ft
800 à 1500m
200 à 500 ft
< 800m
< 200 ft
Symboles :   Orages  Brouillard  Fortes neiges  Fortes précipitations  Vent > 20 kt






- Altitude de l'aérodrome : 3607 ft
- Code IATA : AMA


KAMA - Rick Husband Amarillo International

DERNIER METAR :
  • 211553Z 02019KT 6SM BR OVC005 02/M01 A3006 RMK AO2 PK WND 36027/1455 SLP172 T00171006

METARs EXPIRÉS :
  • 211453Z 36019G26KT 10SM OVC008 01/M01 A3005 RMK AO2 PK WND 01027/1425 SLP168 T00111011 50012
  • 211420Z 01019G23KT 10SM BKN009 01/M01 A3005 RMK AO2 T00111011
  • 211353Z 01014G20KT 10SM CLR 01/M01 A3006 RMK AO2 SLP171 T00061011

TAF KAMA
Valide du 21 à 12h jusqu'au 22 à 12h UTC


211208Z 2112/2212 36012KT P6SM SCT015
FM211700 03012KT P6SM BKN050
FM211900 03011KT P6SM VCSH BKN025
FM220100 04012KT 5SM -RA BKN015
FM220500 04010KT 2SM -RASN OVC009
FM220800 03009KT P6SM OVC005
PROB30 2208/2212 2SM -SNRA OVC002



MET'MAP, la Météo Aéronautique d'un coup d'oeil ! - Copyright ORBIFLY Décembre 2007 - Disclaimer

ORBIFLY MET'MAP TEAM :

Programmation & Développement : Alexandra Zaïnal
Conception & Développement : Baudouin d'Aumeries
Co-Programmation & Développement : Marc-Olivier Méhu
Soutien technique & logistique : Manuel Goepfert

Contact : metmap@orbifly.com




SOURCES & CREDITS :

   NOAA       Earth
Advisory